ITY621 KLAX-LIRF
Flight info
| Callsign | ITY621 |
|---|---|
| Flight time | N/A |
| Altitude | 37000 |
| Route | OSHNN1 BEALE DCT BLIPP DCT WINEN DCT KU57O DCT KU69Q DCT KU81S DCT KU03U DCT ISN DCT AMENU/N0493F390 DCT YYQ DCT YZS DCT 65N080W 67N070W/M085F390 DCT CANEL DCT 68N060W 69N050W/M085F410 6930N04000W 6930N03000W 6830N02000W 66N010W DCT SOSAR/N0479F410 DCT PEPIN DCT PIXEG DCT DOSUR DCT HAM DCT ZUCKA DCT EXITI DCT BERAS M736 LIZUM N503 LIKDA DCT BAKOR DCT GAVRA DCT RITEB |
| Aircraft | A359/H-SDE2E3GHIJ3J4J5LM1ORWXY/LB1D1 |
Departure
| Time | 2026-04-25 09:26 |
|---|---|
| Airport | Los Angeles International Airport (KLAX) |
Arrival
| Time | N/A |
|---|---|
| Airport | Rome–Fiumicino Leonardo da Vinci International Airport (LIRF) |
| Time | Latitude | Longitude | Altitude | Speed | Heading |
|---|---|---|---|---|---|
| 2026-04-25 08:57 | 33.93942 | -118.41071 | 132 ft | 0 kts | 83° |
| 2026-04-25 09:14 | 33.93942 | -118.41066 | 124 ft | 4 kts | 83° |
| 2026-04-25 09:14 | 33.93944 | -118.41057 | 128 ft | 4 kts | 83° |
| 2026-04-25 09:14 | 33.93940 | -118.41089 | 126 ft | 4 kts | 83° |
| 2026-04-25 09:15 | 33.93937 | -118.41122 | 128 ft | 4 kts | 83° |
| 2026-04-25 09:15 | 33.93934 | -118.41153 | 132 ft | 4 kts | 98° |
| 2026-04-25 09:15 | 33.93945 | -118.41174 | 125 ft | 4 kts | 166° |
| 2026-04-25 09:15 | 33.93970 | -118.41178 | 126 ft | 2 kts | 173° |
| 2026-04-25 09:16 | 33.93967 | -118.41177 | 128 ft | 0 kts | 173° |
| 2026-04-25 09:17 | 33.93948 | -118.41175 | 127 ft | 8 kts | 173° |
| 2026-04-25 09:17 | 33.93877 | -118.41165 | 128 ft | 11 kts | 173° |
| 2026-04-25 09:17 | 33.93800 | -118.41149 | 127 ft | 11 kts | 155° |
| 2026-04-25 09:18 | 33.93769 | -118.41064 | 130 ft | 15 kts | 85° |
| 2026-04-25 09:18 | 33.93782 | -118.40936 | 129 ft | 16 kts | 83° |
| 2026-04-25 09:18 | 33.93795 | -118.40804 | 128 ft | 16 kts | 83° |
| 2026-04-25 09:18 | 33.93810 | -118.40670 | 127 ft | 16 kts | 82° |
| 2026-04-25 09:19 | 33.93823 | -118.40534 | 124 ft | 17 kts | 83° |
| 2026-04-25 09:19 | 33.93837 | -118.40394 | 128 ft | 17 kts | 83° |
| 2026-04-25 09:19 | 33.93852 | -118.40253 | 127 ft | 17 kts | 82° |
| 2026-04-25 09:19 | 33.93867 | -118.40110 | 124 ft | 17 kts | 83° |
| 2026-04-25 09:20 | 33.93883 | -118.39964 | 124 ft | 18 kts | 82° |
| 2026-04-25 09:20 | 33.93900 | -118.39816 | 125 ft | 18 kts | 82° |
| 2026-04-25 09:20 | 33.93913 | -118.39664 | 129 ft | 18 kts | 83° |
| 2026-04-25 09:20 | 33.93928 | -118.39512 | 127 ft | 19 kts | 83° |
| 2026-04-25 09:21 | 33.93944 | -118.39356 | 130 ft | 19 kts | 82° |
| 2026-04-25 09:21 | 33.93961 | -118.39198 | 126 ft | 19 kts | 82° |
| 2026-04-25 09:21 | 33.93979 | -118.39037 | 132 ft | 20 kts | 82° |
| 2026-04-25 09:21 | 33.93993 | -118.38874 | 132 ft | 20 kts | 84° |
| 2026-04-25 09:22 | 33.94009 | -118.38711 | 128 ft | 20 kts | 82° |
| 2026-04-25 09:22 | 33.94027 | -118.38547 | 125 ft | 20 kts | 82° |
| 2026-04-25 09:22 | 33.94044 | -118.38380 | 132 ft | 20 kts | 83° |
| 2026-04-25 09:22 | 33.94061 | -118.38211 | 132 ft | 21 kts | 83° |
| 2026-04-25 09:23 | 33.94075 | -118.38056 | 129 ft | 6 kts | 94° |
| 2026-04-25 09:23 | 33.94053 | -118.38019 | 127 ft | 5 kts | 145° |
| 2026-04-25 09:23 | 33.93999 | -118.38019 | 126 ft | 10 kts | 205° |
| 2026-04-25 09:23 | 33.93980 | -118.38086 | 129 ft | 9 kts | 263° |
| 2026-04-25 09:24 | 33.93970 | -118.38180 | 129 ft | 12 kts | 262° |
| 2026-04-25 09:24 | 33.93957 | -118.38281 | 131 ft | 11 kts | 249° |
| 2026-04-25 09:24 | 33.93890 | -118.38311 | 124 ft | 11 kts | 177° |
| 2026-04-25 09:24 | 33.93805 | -118.38300 | 129 ft | 13 kts | 174° |
| 2026-04-25 09:25 | 33.93736 | -118.38350 | 120 ft | 12 kts | 245° |
| 2026-04-25 09:25 | 33.93706 | -118.38582 | 128 ft | 56 kts | 263° |
| 2026-04-25 09:25 | 33.93634 | -118.39293 | 132 ft | 113 kts | 263° |
| 2026-04-25 09:25 | 33.93519 | -118.40418 | 134 ft | 160 kts | 263° |
| 2026-04-25 09:26 | 33.93382 | -118.41749 | 733 ft | 152 kts | 261° |
| 2026-04-25 09:26 | 33.93241 | -118.43071 | 1097 ft | 170 kts | 262° |
| 2026-04-25 09:26 | 33.93084 | -118.44586 | 1346 ft | 194 kts | 262° |
| 2026-04-25 09:26 | 33.92620 | -118.46225 | 1495 ft | 220 kts | 237° |
| 2026-04-25 09:27 | 33.91704 | -118.47784 | 1777 ft | 241 kts | 231° |